Time;durP1;ratioP1;P1;durP2;ratioP2;P2;SDS_P1;SDS_P2;PMS_P1;PMS_P2;Temp;Humidity;BMP_temperature;BMP_pressure;BME280_temperature;BME280_humidity;BME280_pressure;Samples;Min_cycle;Max_cycle;Signal;HPM_P1;HPM_P2
2023/02/11 00:00:09;;;;;;;;;;;-2.30;73.70;;;;;;5002575;28;87109;-37
2023/02/11 00:02:35;;;;;;;;;;;-2.20;73.70;;;;;;5002734;28;87367;-37
2023/02/11 00:05:01;;;;;;;;;;;-2.30;73.70;;;;;;5002583;28;89201;-37
2023/02/11 00:07:30;;;;;;;;;;;-2.30;73.90;;;;;;5002421;28;87378;-37
2023/02/11 00:09:56;;;;;;;;;;;-2.40;73.90;;;;;;5005275;28;87345;-37
2023/02/11 00:12:21;;;;;;;;;;;-2.30;74.00;;;;;;5000629;28;88065;-37
2023/02/11 00:14:47;;;;;;;;;;;-2.30;73.80;;;;;;5002442;28;89766;-38
2023/02/11 00:17:13;;;;;;;;;;;-2.30;73.60;;;;;;5002270;28;88142;-37
2023/02/11 00:19:38;;;;;;;;;;;-2.30;73.70;;;;;;5002598;28;87092;-37
2023/02/11 00:22:04;;;;;;;;;;;-2.30;73.70;;;;;;5002366;28;88914;-37
2023/02/11 00:24:30;;;;;;;;;;;-2.40;73.60;;;;;;5001989;28;89141;-38
2023/02/11 00:26:55;;;;;;;;;;;-2.40;73.60;;;;;;5002440;28;87107;-37
2023/02/11 00:29:21;;;;;;;;;;;-2.30;73.70;;;;;;5005284;28;88430;-36
2023/02/11 00:31:46;;;;;;;;;;;-2.30;73.60;;;;;;5002277;28;87122;-37
2023/02/11 00:34:12;;;;;;;;;;;-2.30;73.60;;;;;;5001926;28;88758;-37
2023/02/11 00:36:37;;;;;;;;;;;-2.40;73.50;;;;;;5001245;28;89187;-37
2023/02/11 00:39:03;;;;;;;;;;;-2.40;73.40;;;;;;5002173;28;87145;-37
2023/02/11 00:41:29;;;;;;;;;;;-2.40;73.70;;;;;;5002231;28;88587;-37
2023/02/11 00:43:54;;;;;;;;;;;-2.40;74.30;;;;;;5001798;28;87977;-37
2023/02/11 00:46:20;;;;;;;;;;;-2.40;73.60;;;;;;5001979;28;87054;-37
2023/02/11 00:48:46;;;;;;;;;;;-2.40;73.80;;;;;;5002020;28;88604;-37
2023/02/11 00:51:11;;;;;;;;;;;-2.50;73.80;;;;;;5004154;28;89258;-38
2023/02/11 00:53:37;;;;;;;;;;;-2.40;73.90;;;;;;5002358;28;87644;-37
2023/02/11 00:56:03;;;;;;;;;;;-2.40;73.50;;;;;;5001810;28;88373;-37
2023/02/11 00:58:28;;;;;;;;;;;-2.50;73.50;;;;;;5001889;28;87001;-37
2023/02/11 01:00:54;;;;;;;;;;;-2.50;73.60;;;;;;5001296;28;88700;-37
2023/02/11 01:03:20;;;;;;;;;;;-2.50;73.60;;;;;;5001725;28;87867;-37
2023/02/11 01:05:45;;;;;;;;;;;-2.50;73.60;;;;;;5001335;28;87052;-36
2023/02/11 01:08:11;;;;;;;;;;;-2.50;73.60;;;;;;5001704;28;88843;-37
2023/02/11 01:10:36;;;;;;;;;;;-2.50;73.60;;;;;;5001655;28;88006;-37
2023/02/11 01:13:02;;;;;;;;;;;-2.50;73.70;;;;;;5004594;28;87114;-37
2023/02/11 01:15:28;;;;;;;;;;;-2.50;73.60;;;;;;5001410;28;89212;-37
2023/02/11 01:17:53;;;;;;;;;;;-2.60;73.60;;;;;;5002147;28;86380;-37
2023/02/11 01:20:20;;;;;;;;;;;-2.50;73.60;;;;;;5001492;28;88373;-37
2023/02/11 01:22:46;;;;;;;;;;;-2.60;73.50;;;;;;5002125;28;89525;-37
2023/02/11 01:25:12;;;;;;;;;;;-2.60;73.70;;;;;;5004357;28;88204;-37
2023/02/11 01:27:37;;;;;;;;;;;-2.60;73.60;;;;;;5004917;28;89500;-37
2023/02/11 01:30:04;;;;;;;;;;;-2.60;73.60;;;;;;5004684;28;89108;-37
2023/02/11 01:32:29;;;;;;;;;;;-2.60;73.50;;;;;;5004892;28;87144;-37
2023/02/11 01:34:55;;;;;;;;;;;-2.50;73.40;;;;;;5007437;28;87795;-36
2023/02/11 01:37:20;;;;;;;;;;;-2.60;73.50;;;;;;5004708;28;87071;-37
2023/02/11 01:39:46;;;;;;;;;;;-2.60;73.60;;;;;;5004810;28;88872;-37
2023/02/11 01:42:16;;;;;;;;;;;-2.60;73.50;;;;;;5004992;28;88596;-37
2023/02/11 01:44:41;;;;;;;;;;;-2.60;73.60;;;;;;5004721;28;86992;-37
2023/02/11 01:47:07;;;;;;;;;;;-2.60;73.40;;;;;;5004662;28;88667;-37
2023/02/11 01:49:38;;;;;;;;;;;-2.60;73.40;;;;;;5003660;28;90790;-37
2023/02/11 01:52:16;;;;;;;;;;;-2.60;73.50;;;;;;5004659;28;87123;-37
2023/02/11 01:57:31;;;;;;;;;;;-2.70;73.60;;;;;;5006448;28;87108;-37
2023/02/11 02:00:11;;;;;;;;;;;-2.70;73.40;;;;;;5004568;28;87913;-37
2023/02/11 02:02:37;;;;;;;;;;;-2.70;73.40;;;;;;5004114;28;89303;-37
2023/02/11 02:05:23;;;;;;;;;;;-2.70;73.30;;;;;;5004445;28;86903;-37
2023/02/11 02:07:59;;;;;;;;;;;-2.70;73.40;;;;;;5004974;28;87739;-37
2023/02/11 02:10:25;;;;;;;;;;;-2.70;73.40;;;;;;5003731;28;89203;-37
2023/02/11 02:12:52;;;;;;;;;;;-2.70;73.40;;;;;;5004159;28;87137;-37
2023/02/11 02:15:17;;;;;;;;;;;-2.70;73.40;;;;;;5003799;28;88823;-37
2023/02/11 02:17:48;;;;;;;;;;;-2.70;73.30;;;;;;5004030;28;88288;-37
2023/02/11 02:20:32;;;;;;;;;;;-2.70;73.40;;;;;;5007232;28;86934;-37
2023/02/11 02:23:06;;;;;;;;;;;-2.80;73.40;;;;;;5003911;28;88563;-37
2023/02/11 02:25:43;;;;;;;;;;;-2.80;73.50;;;;;;5004298;28;87059;-37
2023/02/11 02:28:15;;;;;;;;;;;-2.80;73.40;;;;;;5004327;28;87341;-37
2023/02/11 02:30:43;;;;;;;;;;;-2.80;73.50;;;;;;5003520;28;89534;-37
2023/02/11 02:33:27;;;;;;;;;;;-2.80;73.60;;;;;;5004747;28;86161;-37
2023/02/11 02:35:57;;;;;;;;;;;-2.80;73.40;;;;;;5002752;28;88329;-37
2023/02/11 02:38:41;;;;;;;;;;;-2.80;73.30;;;;;;5003504;28;89358;-37
2023/02/11 02:41:14;;;;;;;;;;;-2.80;73.20;;;;;;5006404;28;88471;-37
2023/02/11 02:43:41;;;;;;;;;;;-2.80;73.30;;;;;;5003382;28;89399;-37
2023/02/11 02:46:26;;;;;;;;;;;-2.80;73.20;;;;;;5003828;28;87030;-37
2023/02/11 02:48:52;;;;;;;;;;;-2.80;73.30;;;;;;5003785;28;88692;-37
2023/02/11 02:51:17;;;;;;;;;;;-2.80;73.40;;;;;;5003424;28;89599;-37
2023/02/11 02:53:46;;;;;;;;;;;-2.90;73.40;;;;;;5003913;28;86911;-37
2023/02/11 02:56:11;;;;;;;;;;;-2.90;73.40;;;;;;5003607;28;88601;-37
2023/02/11 02:58:46;;;;;;;;;;;-2.90;73.20;;;;;;5003444;28;89014;-37
2023/02/11 03:01:19;;;;;;;;;;;-2.90;73.30;;;;;;5003632;28;87174;-37
2023/02/11 03:03:53;;;;;;;;;;;-2.90;73.40;;;;;;5006279;28;87569;-37
2023/02/11 03:06:30;;;;;;;;;;;-3.00;73.10;;;;;;5002741;28;87945;-36
2023/02/11 03:09:07;;;;;;;;;;;-2.90;73.30;;;;;;5003729;28;89566;-37
2023/02/11 03:11:34;;;;;;;;;;;-2.90;73.30;;;;;;5003147;28;88199;-37
2023/02/11 03:14:00;;;;;;;;;;;-2.90;73.20;;;;;;5003621;28;87132;-37
2023/02/11 03:16:27;;;;;;;;;;;-3.00;73.20;;;;;;5003455;28;88991;-37
2023/02/11 03:19:04;;;;;;;;;;;-2.90;73.20;;;;;;5003006;28;89202;-37
2023/02/11 03:21:31;;;;;;;;;;;-2.90;73.20;;;;;;5003280;28;87186;-37
2023/02/11 03:23:59;;;;;;;;;;;-3.00;73.20;;;;;;5003907;28;87436;-37
2023/02/11 03:26:28;;;;;;;;;;;-3.00;73.20;;;;;;5005900;28;88050;-37
2023/02/11 03:28:59;;;;;;;;;;;-3.00;73.10;;;;;;5003261;28;89188;-37
2023/02/11 03:31:43;;;;;;;;;;;-3.00;73.20;;;;;;5002220;28;89260;-37
2023/02/11 03:34:17;;;;;;;;;;;-3.00;73.30;;;;;;5003344;28;87113;-37
2023/02/11 03:37:03;;;;;;;;;;;-3.00;73.30;;;;;;5002958;28;88706;-37
2023/02/11 03:39:32;;;;;;;;;;;-3.00;73.30;;;;;;5002486;28;89353;-37
2023/02/11 03:41:58;;;;;;;;;;;-3.00;73.10;;;;;;5002867;28;87111;-37
2023/02/11 03:44:27;;;;;;;;;;;-3.10;73.10;;;;;;5003183;28;87226;-36
2023/02/11 03:46:54;;;;;;;;;;;-3.10;73.20;;;;;;5002475;28;89421;-37
2023/02/11 03:49:20;;;;;;;;;;;-3.10;73.00;;;;;;5006252;28;86399;-37
2023/02/11 03:51:47;;;;;;;;;;;-3.10;73.20;;;;;;5002463;28;89337;-36
2023/02/11 03:54:15;;;;;;;;;;;-3.10;73.20;;;;;;5002771;28;87097;-37
2023/02/11 03:56:44;;;;;;;;;;;-3.20;73.70;;;;;;5002289;28;88886;-37
2023/02/11 03:59:10;;;;;;;;;;;-3.10;73.00;;;;;;5002246;28;89008;-37
2023/02/11 04:01:35;;;;;;;;;;;-3.10;73.00;;;;;;5002632;28;87445;-37
2023/02/11 04:04:01;;;;;;;;;;;-3.10;73.20;;;;;;5002749;28;88681;-37
2023/02/11 04:06:26;;;;;;;;;;;-3.10;73.00;;;;;;5001954;28;87909;-37
2023/02/11 04:08:52;;;;;;;;;;;-3.20;73.20;;;;;;5001360;28;87143;-37
2023/02/11 04:11:17;;;;;;;;;;;-3.20;73.00;;;;;;5005284;28;86930;-37
2023/02/11 04:13:43;;;;;;;;;;;-3.20;72.90;;;;;;5003220;28;86018;-36
2023/02/11 04:16:08;;;;;;;;;;;-3.20;72.90;;;;;;5002194;28;88199;-37
2023/02/11 04:18:34;;;;;;;;;;;-3.20;73.10;;;;;;5002359;28;88060;-36
2023/02/11 04:20:59;;;;;;;;;;;-3.20;73.00;;;;;;5001770;28;87803;-37
2023/02/11 04:23:25;;;;;;;;;;;-3.20;73.20;;;;;;5002348;28;88810;-37
2023/02/11 04:25:50;;;;;;;;;;;-3.30;73.10;;;;;;5001878;28;89197;-37
2023/02/11 04:28:16;;;;;;;;;;;-3.30;73.10;;;;;;5002342;28;87226;-37
2023/02/11 04:30:41;;;;;;;;;;;-3.30;73.20;;;;;;5002261;28;88613;-37
2023/02/11 04:33:07;;;;;;;;;;;-3.30;73.20;;;;;;5004828;28;89736;-37
2023/02/11 04:35:32;;;;;;;;;;;-3.30;73.20;;;;;;5001977;28;88672;-37
2023/02/11 04:37:58;;;;;;;;;;;-3.30;73.10;;;;;;5002276;28;88900;-37
2023/02/11 04:40:23;;;;;;;;;;;-3.30;73.00;;;;;;5001908;28;87211;-37
2023/02/11 04:42:49;;;;;;;;;;;-3.30;73.20;;;;;;5002202;28;89025;-37
2023/02/11 04:45:14;;;;;;;;;;;-3.30;72.90;;;;;;5001059;28;89005;-37
2023/02/11 04:47:40;;;;;;;;;;;-3.30;73.00;;;;;;5001805;28;87087;-37
2023/02/11 04:50:05;;;;;;;;;;;-3.40;73.00;;;;;;5002245;28;88653;-37
2023/02/11 04:52:31;;;;;;;;;;;-3.40;73.00;;;;;;5004502;28;89189;-37
2023/02/11 04:54:56;;;;;;;;;;;-3.40;73.00;;;;;;5002120;28;88845;-37
2023/02/11 04:57:22;;;;;;;;;;;-3.40;73.10;;;;;;5001836;28;89390;-37
2023/02/11 04:59:47;;;;;;;;;;;-3.40;72.90;;;;;;5005910;28;87144;-37
2023/02/11 05:02:13;;;;;;;;;;;-3.40;73.00;;;;;;5005770;28;88774;-37
2023/02/11 05:04:38;;;;;;;;;;;-3.40;73.10;;;;;;5004923;28;89008;-37
2023/02/11 05:07:04;;;;;;;;;;;-3.40;72.90;;;;;;5005161;28;87036;-37
2023/02/11 05:09:29;;;;;;;;;;;-3.50;73.10;;;;;;5004750;28;89020;-37
2023/02/11 05:11:55;;;;;;;;;;;-3.50;73.70;;;;;;5004879;28;89314;-37
2023/02/11 05:14:20;;;;;;;;;;;-3.50;73.20;;;;;;5008033;28;87426;-37
2023/02/11 05:16:46;;;;;;;;;;;-3.50;73.10;;;;;;5004585;28;88549;-37
2023/02/11 05:19:11;;;;;;;;;;;-3.50;73.20;;;;;;5005180;28;87466;-37
2023/02/11 05:21:37;;;;;;;;;;;-3.60;73.30;;;;;;5005160;28;88835;-37
2023/02/11 05:24:02;;;;;;;;;;;-3.60;73.30;;;;;;5004997;28;87217;-37
2023/02/11 05:26:28;;;;;;;;;;;-3.50;73.10;;;;;;5005399;28;86260;-37
2023/02/11 05:28:53;;;;;;;;;;;-3.60;73.00;;;;;;5005345;28;87257;-36
2023/02/11 05:31:19;;;;;;;;;;;-3.60;73.20;;;;;;5004574;28;88088;-36
2023/02/11 05:33:44;;;;;;;;;;;-3.60;73.20;;;;;;5004471;28;87948;-37
2023/02/11 05:36:11;;;;;;;;;;;-3.70;73.00;;;;;;5007148;28;89035;-36
2023/02/11 05:38:36;;;;;;;;;;;-3.60;73.40;;;;;;5004881;28;87180;-36
2023/02/11 05:41:03;;;;;;;;;;;-3.60;73.10;;;;;;5004735;28;88694;-37
2023/02/11 05:43:29;;;;;;;;;;;-3.70;73.10;;;;;;5004528;28;88085;-37
2023/02/11 05:45:54;;;;;;;;;;;-3.70;73.30;;;;;;5004908;28;87019;-37
2023/02/11 05:48:20;;;;;;;;;;;-3.70;73.90;;;;;;5005034;28;88659;-37
2023/02/11 05:50:45;;;;;;;;;;;-3.70;73.10;;;;;;5004698;28;88674;-37
2023/02/11 05:53:11;;;;;;;;;;;-3.70;73.20;;;;;;5004743;28;88008;-36
2023/02/11 05:55:37;;;;;;;;;;;-3.70;73.20;;;;;;5004565;28;87972;-36
2023/02/11 05:58:03;;;;;;;;;;;-3.70;73.10;;;;;;5006391;28;89502;-37
2023/02/11 06:00:28;;;;;;;;;;;-3.80;73.20;;;;;;5004336;28;89634;-37
2023/02/11 06:02:54;;;;;;;;;;;-3.80;73.30;;;;;;5004078;28;89612;-37
2023/02/11 06:05:19;;;;;;;;;;;-3.80;73.20;;;;;;5004428;28;87129;-36
2023/02/11 06:07:45;;;;;;;;;;;-3.80;73.30;;;;;;5004427;28;87742;-37
2023/02/11 06:10:11;;;;;;;;;;;-3.80;73.40;;;;;;5002865;28;89201;-36
2023/02/11 06:12:36;;;;;;;;;;;-3.80;73.30;;;;;;5004234;28;87165;-37
2023/02/11 06:15:02;;;;;;;;;;;-3.80;73.30;;;;;;5004903;28;88979;-36
2023/02/11 06:17:32;;;;;;;;;;;-3.80;73.30;;;;;;5003700;28;89622;-37
2023/02/11 06:20:01;;;;;;;;;;;-3.90;73.20;;;;;;5007086;28;87106;-37
2023/02/11 06:22:27;;;;;;;;;;;-3.80;73.20;;;;;;5003241;28;90482;-36
2023/02/11 06:24:52;;;;;;;;;;;-3.80;73.20;;;;;;5004414;28;87167;-36
2023/02/11 06:27:18;;;;;;;;;;;-3.80;73.10;;;;;;5004343;28;89159;-36
2023/02/11 06:29:44;;;;;;;;;;;-3.90;73.00;;;;;;5003837;28;88374;-37
2023/02/11 06:32:09;;;;;;;;;;;-3.90;73.20;;;;;;5003961;28;87083;-36
2023/02/11 06:34:35;;;;;;;;;;;-3.90;73.20;;;;;;5003825;28;88804;-37
2023/02/11 06:37:00;;;;;;;;;;;-3.90;73.30;;;;;;5003498;28;88549;-36
2023/02/11 06:39:26;;;;;;;;;;;-3.90;73.40;;;;;;5004651;28;86409;-37
2023/02/11 06:41:51;;;;;;;;;;;-4.00;73.40;;;;;;5006855;28;87093;-37
2023/02/11 06:44:17;;;;;;;;;;;-3.90;73.40;;;;;;5003839;28;87516;-36
2023/02/11 06:46:42;;;;;;;;;;;-3.90;73.20;;;;;;5003013;28;88902;-37
2023/02/11 06:49:08;;;;;;;;;;;-4.00;73.20;;;;;;5003301;28;88579;-36
2023/02/11 06:51:33;;;;;;;;;;;-3.90;73.30;;;;;;5003898;28;87225;-37
2023/02/11 06:53:59;;;;;;;;;;;-3.90;73.20;;;;;;5004010;28;87350;-37
2023/02/11 06:56:26;;;;;;;;;;;-3.90;73.10;;;;;;5003336;28;89504;-37
2023/02/11 06:58:54;;;;;;;;;;;-3.90;73.30;;;;;;5003779;28;87321;-36
2023/02/11 07:01:20;;;;;;;;;;;-4.00;73.30;;;;;;5006294;28;87491;-37
2023/02/11 07:03:46;;;;;;;;;;;-4.00;73.20;;;;;;5003960;28;86382;-37
2023/02/11 07:06:13;;;;;;;;;;;-4.00;73.10;;;;;;5003385;28;87093;-37
2023/02/11 07:08:41;;;;;;;;;;;-4.00;73.10;;;;;;5003228;28;87994;-36
2023/02/11 07:11:17;;;;;;;;;;;-4.00;73.00;;;;;;5002774;28;88074;-37
2023/02/11 07:13:43;;;;;;;;;;;-3.90;73.10;;;;;;5003193;28;89985;-37
2023/02/11 07:16:10;;;;;;;;;;;-3.90;73.10;;;;;;5003000;28;89619;-37
2023/02/11 07:18:36;;;;;;;;;;;-4.00;73.20;;;;;;5003670;28;87178;-37
2023/02/11 07:21:08;;;;;;;;;;;-4.00;73.20;;;;;;5002726;28;88670;-37
2023/02/11 07:23:34;;;;;;;;;;;-4.00;73.10;;;;;;5005758;28;89146;-36
2023/02/11 07:26:04;;;;;;;;;;;-4.00;73.10;;;;;;5002999;28;89186;-37
2023/02/11 07:28:29;;;;;;;;;;;-4.00;73.20;;;;;;5003300;28;87204;-37
2023/02/11 07:30:55;;;;;;;;;;;-4.00;73.50;;;;;;5003247;28;87009;-37
2023/02/11 07:33:20;;;;;;;;;;;-4.00;73.50;;;;;;5002945;28;88880;-37
2023/02/11 07:35:46;;;;;;;;;;;-4.10;73.40;;;;;;5002042;28;89388;-37
2023/02/11 07:38:11;;;;;;;;;;;-4.00;73.40;;;;;;5002738;28;87122;-37
2023/02/11 07:40:37;;;;;;;;;;;-4.00;73.30;;;;;;5002825;28;88920;-37
2023/02/11 07:43:02;;;;;;;;;;;-4.00;73.30;;;;;;5002257;28;89372;-37
2023/02/11 07:45:28;;;;;;;;;;;-4.00;73.10;;;;;;5021309;28;87156;-37
2023/02/11 07:47:53;;;;;;;;;;;-4.00;73.20;;;;;;5002519;28;89643;-37
2023/02/11 07:50:19;;;;;;;;;;;-4.00;73.30;;;;;;5002738;28;87125;-37
2023/02/11 07:52:44;;;;;;;;;;;-4.00;73.20;;;;;;5003114;28;89424;-37
2023/02/11 07:55:10;;;;;;;;;;;-4.00;73.40;;;;;;5002233;28;89013;-36
2023/02/11 07:57:36;;;;;;;;;;;-4.00;73.40;;;;;;5002799;28;87109;-37
2023/02/11 08:00:02;;;;;;;;;;;-4.00;73.50;;;;;;5002043;28;87863;-37
2023/02/11 08:02:27;;;;;;;;;;;-4.00;73.30;;;;;;5002423;28;89768;-37
2023/02/11 08:04:53;;;;;;;;;;;-4.00;73.40;;;;;;5002608;28;87191;-36
2023/02/11 08:07:18;;;;;;;;;;;-4.00;73.50;;;;;;5004801;28;88768;-36
2023/02/11 08:09:44;;;;;;;;;;;-4.00;73.50;;;;;;5002575;28;87023;-37
2023/02/11 08:12:10;;;;;;;;;;;-4.00;73.50;;;;;;5002603;28;88701;-37
2023/02/11 08:14:35;;;;;;;;;;;-4.00;73.60;;;;;;5002178;28;89443;-37
2023/02/11 08:17:01;;;;;;;;;;;-4.00;73.50;;;;;;5002890;28;86277;-37
2023/02/11 08:19:27;;;;;;;;;;;-4.00;73.60;;;;;;5002572;28;88148;-37
2023/02/11 08:21:56;;;;;;;;;;;-4.00;73.60;;;;;;5002013;28;89334;-37
2023/02/11 08:24:22;;;;;;;;;;;-4.00;73.60;;;;;;5001891;28;88036;-37
2023/02/11 08:26:47;;;;;;;;;;;-4.00;73.50;;;;;;5002276;28;89642;-37
2023/02/11 08:29:14;;;;;;;;;;;-4.00;73.60;;;;;;5004872;28;89388;-37
2023/02/11 08:31:40;;;;;;;;;;;-4.00;73.70;;;;;;5002343;28;88644;-37
2023/02/11 08:34:06;;;;;;;;;;;-4.00;73.70;;;;;;5004878;28;89250;-37
2023/02/11 08:36:33;;;;;;;;;;;-4.00;73.60;;;;;;5005936;28;87157;-37
2023/02/11 08:39:01;;;;;;;;;;;-4.00;73.60;;;;;;5005844;28;89086;-37
2023/02/11 08:41:27;;;;;;;;;;;-3.90;73.40;;;;;;5005772;28;88668;-37
2023/02/11 08:43:53;;;;;;;;;;;-3.90;73.50;;;;;;5005849;28;87149;-36
2023/02/11 08:46:19;;;;;;;;;;;-3.90;73.50;;;;;;5005715;28;88728;-37
2023/02/11 08:48:45;;;;;;;;;;;-3.90;73.60;;;;;;5004761;28;89042;-37
2023/02/11 08:51:12;;;;;;;;;;;-3.90;73.50;;;;;;5008484;28;86983;-37
2023/02/11 08:53:38;;;;;;;;;;;-3.90;73.60;;;;;;5005313;28;88128;-37
2023/02/11 08:56:04;;;;;;;;;;;-4.00;73.60;;;;;;5005616;28;87066;-37
2023/02/11 08:58:29;;;;;;;;;;;-4.00;73.80;;;;;;5005710;28;88632;-36
2023/02/11 09:00:55;;;;;;;;;;;-4.00;73.90;;;;;;5005279;28;88457;-36
2023/02/11 09:03:20;;;;;;;;;;;-4.00;73.90;;;;;;5005443;28;87105;-37
2023/02/11 09:05:47;;;;;;;;;;;-4.00;74.10;;;;;;5005316;28;88714;-37
2023/02/11 09:08:12;;;;;;;;;;;-4.00;74.10;;;;;;5004918;28;89026;-37
2023/02/11 09:10:38;;;;;;;;;;;-4.00;73.90;;;;;;5008359;28;87715;-37
2023/02/11 09:13:04;;;;;;;;;;;-4.00;74.10;;;;;;5004082;28;90701;-37
2023/02/11 09:15:30;;;;;;;;;;;-4.00;74.20;;;;;;5005521;28;87081;-37
2023/02/11 09:17:56;;;;;;;;;;;-4.00;74.20;;;;;;5005221;28;88640;-36
2023/02/11 09:20:21;;;;;;;;;;;-4.00;74.20;;;;;;5005134;28;87885;-37
2023/02/11 09:22:47;;;;;;;;;;;-4.00;74.30;;;;;;5005302;28;86826;-37
2023/02/11 09:25:12;;;;;;;;;;;-4.00;74.30;;;;;;5005289;28;87268;-36
2023/02/11 09:27:38;;;;;;;;;;;-3.90;74.10;;;;;;5004428;28;89055;-37
2023/02/11 09:30:04;;;;;;;;;;;-3.90;74.00;;;;;;5005465;28;86398;-36
2023/02/11 09:32:29;;;;;;;;;;;-3.90;73.90;;;;;;5007608;28;88020;-36
2023/02/11 09:34:55;;;;;;;;;;;-3.90;74.10;;;;;;5004590;28;87100;-37
2023/02/11 09:37:20;;;;;;;;;;;-3.90;74.00;;;;;;5004379;28;87940;-37
2023/02/11 09:39:46;;;;;;;;;;;-3.90;73.90;;;;;;5004493;28;89358;-37
2023/02/11 09:42:11;;;;;;;;;;;-3.80;74.00;;;;;;5004663;28;87109;-37
2023/02/11 09:44:38;;;;;;;;;;;-3.80;74.10;;;;;;5004382;28;88754;-37
2023/02/11 09:47:04;;;;;;;;;;;-3.80;74.20;;;;;;5004490;28;88488;-37
2023/02/11 09:49:33;;;;;;;;;;;-3.80;74.00;;;;;;5004789;28;87115;-37
2023/02/11 09:52:03;;;;;;;;;;;-3.80;74.20;;;;;;5004613;28;88640;-36
2023/02/11 09:54:38;;;;;;;;;;;-3.70;74.10;;;;;;5007827;28;88632;-37
2023/02/11 09:57:04;;;;;;;;;;;-3.80;74.10;;;;;;5004797;28;88239;-37
2023/02/11 09:59:30;;;;;;;;;;;-3.70;74.20;;;;;;5003910;28;89171;-37
2023/02/11 10:01:57;;;;;;;;;;;-3.70;74.00;;;;;;5003756;28;88054;-37
2023/02/11 10:04:35;;;;;;;;;;;-3.70;73.90;;;;;;5004746;28;88276;-37
2023/02/11 10:07:13;;;;;;;;;;;-3.70;74.10;;;;;;5003899;28;89211;-37
2023/02/11 10:09:57;;;;;;;;;;;-3.70;74.00;;;;;;5004466;28;86906;-37
2023/02/11 10:12:42;;;;;;;;;;;-3.70;74.20;;;;;;5004771;28;87420;-37
2023/02/11 10:15:16;;;;;;;;;;;-3.70;74.10;;;;;;5004185;28;89463;-37
2023/02/11 10:18:00;;;;;;;;;;;-3.70;74.00;;;;;;5006836;28;87024;-37
2023/02/11 10:20:31;;;;;;;;;;;-3.60;74.20;;;;;;5004671;28;87227;-37
2023/02/11 10:22:59;;;;;;;;;;;-3.60;74.10;;;;;;5004053;28;87239;-37
2023/02/11 10:25:25;;;;;;;;;;;-3.60;74.10;;;;;;5004275;28;87893;-37
2023/02/11 10:27:52;;;;;;;;;;;-3.60;74.10;;;;;;5003432;28;88829;-37
2023/02/11 10:30:18;;;;;;;;;;;-3.60;74.10;;;;;;5003712;28;87408;-37
2023/02/11 10:33:03;;;;;;;;;;;-3.60;74.00;;;;;;5004218;28;88773;-37
2023/02/11 10:35:30;;;;;;;;;;;-3.60;73.90;;;;;;4995513;28;89403;-37
2023/02/11 10:37:55;;;;;;;;;;;-3.60;73.80;;;;;;5003866;28;87099;-37
2023/02/11 10:40:23;;;;;;;;;;;-3.50;73.90;;;;;;5006411;28;87844;-37
2023/02/11 10:42:50;;;;;;;;;;;-3.50;73.90;;;;;;5003621;28;87128;-37
2023/02/11 10:45:18;;;;;;;;;;;-3.50;73.90;;;;;;5004404;28;88744;-37
2023/02/11 10:47:44;;;;;;;;;;;-3.50;73.80;;;;;;5003442;28;88571;-37
2023/02/11 10:50:20;;;;;;;;;;;-3.50;73.90;;;;;;5003740;28;87058;-37
2023/02/11 10:52:46;;;;;;;;;;;-3.40;73.90;;;;;;5003128;28;88037;-37
2023/02/11 10:55:23;;;;;;;;;;;-3.50;73.90;;;;;;5002519;28;89191;-37
2023/02/11 10:57:51;;;;;;;;;;;-3.40;73.90;;;;;;5003715;28;87177;-37
2023/02/11 11:00:16;;;;;;;;;;;-3.40;73.90;;;;;;5006202;28;87432;-37
2023/02/11 11:02:43;;;;;;;;;;;-3.50;74.00;;;;;;5003487;28;87135;-37
2023/02/11 11:05:15;;;;;;;;;;;-3.40;74.00;;;;;;5003324;28;88722;-37
2023/02/11 11:07:51;;;;;;;;;;;-3.50;73.90;;;;;;5003332;28;89065;-37
2023/02/11 11:10:49;;;;;;;;;;;-3.40;74.00;;;;;;5003965;28;86348;-37
2023/02/11 11:13:24;;;;;;;;;;;-3.50;74.20;;;;;;4979953;28;88094;-37
2023/02/11 11:16:06;;;;;;;;;;;-3.40;74.90;;;;;;5003346;28;87895;-37
2023/02/11 11:18:31;;;;;;;;;;;-3.40;74.00;;;;;;5002855;28;88980;-37
2023/02/11 11:21:01;;;;;;;;;;;-3.40;74.10;;;;;;5003171;28;89511;-37
2023/02/11 11:23:28;;;;;;;;;;;-3.40;74.30;;;;;;5005655;28;88472;-37
2023/02/11 11:26:02;;;;;;;;;;;-3.40;74.20;;;;;;5003274;28;87897;-37
2023/02/11 11:28:30;;;;;;;;;;;-3.30;74.30;;;;;;5003119;28;88333;-37
2023/02/11 11:30:56;;;;;;;;;;;-3.40;74.30;;;;;;5003077;28;87077;-37
2023/02/11 11:33:22;;;;;;;;;;;-3.30;74.40;;;;;;5003269;28;88696;-37
2023/02/11 11:35:57;;;;;;;;;;;-3.30;74.50;;;;;;5002864;28;87535;-37
2023/02/11 11:38:23;;;;;;;;;;;-3.30;74.40;;;;;;5003063;28;87095;-37
2023/02/11 11:41:08;;;;;;;;;;;-3.20;74.30;;;;;;5002858;28;88802;-37
2023/02/11 11:43:36;;;;;;;;;;;-3.30;74.50;;;;;;5001496;28;89629;-37
2023/02/11 11:46:05;;;;;;;;;;;-3.30;74.50;;;;;;5005705;28;87049;-37
2023/02/11 11:48:33;;;;;;;;;;;-3.30;74.60;;;;;;5002387;28;89652;-37
2023/02/11 11:51:00;;;;;;;;;;;-3.20;74.90;;;;;;5002832;28;87062;-36
2023/02/11 11:53:38;;;;;;;;;;;-3.20;74.50;;;;;;5003076;28;87150;-37
2023/02/11 11:56:08;;;;;;;;;;;-3.20;74.40;;;;;;5002107;28;89249;-37
2023/02/11 11:58:34;;;;;;;;;;;-3.10;74.40;;;;;;5002844;28;88249;-37
2023/02/11 12:01:17;;;;;;;;;;;-3.10;74.40;;;;;;5003160;28;88517;-37
2023/02/11 12:03:43;;;;;;;;;;;-3.10;74.30;;;;;;5002427;28;89467;-37
2023/02/11 12:06:27;;;;;;;;;;;-3.00;74.80;;;;;;5002306;28;87220;-37
2023/02/11 12:08:56;;;;;;;;;;;-3.00;74.80;;;;;;5004520;28;88669;-37
2023/02/11 12:11:40;;;;;;;;;;;-3.00;74.60;;;;;;5002515;28;87136;-37
2023/02/11 12:14:08;;;;;;;;;;;-3.00;74.50;;;;;;5002879;28;87414;-37
2023/02/11 12:16:56;;;;;;;;;;;-3.00;74.60;;;;;;5002185;28;89393;-37
2023/02/11 12:19:46;;;;;;;;;;;-3.00;74.50;;;;;;5002307;28;87155;-37
2023/02/11 12:22:25;;;;;;;;;;;-3.00;74.90;;;;;;5002584;28;88679;-37
2023/02/11 12:24:55;;;;;;;;;;;-2.90;74.70;;;;;;5002027;28;89029;-37
2023/02/11 12:27:23;;;;;;;;;;;-2.90;74.40;;;;;;5002805;28;86329;-37
2023/02/11 12:30:02;;;;;;;;;;;-2.90;74.60;;;;;;5002444;28;87908;-37
2023/02/11 12:32:36;;;;;;;;;;;-2.90;74.70;;;;;;5004808;28;89115;-37
2023/02/11 12:35:01;;;;;;;;;;;-2.90;74.10;;;;;;5001692;28;88661;-37
2023/02/11 12:37:42;;;;;;;;;;;-2.80;74.00;;;;;;5001858;28;89669;-37
2023/02/11 12:40:13;;;;;;;;;;;-2.90;74.00;;;;;;5002278;28;87115;-37
2023/02/11 12:45:35;;;;;;;;;;;-2.80;74.40;;;;;;5002179;28;87268;-37
2023/02/11 12:48:09;;;;;;;;;;;-2.80;74.60;;;;;;5002095;28;87154;-37
2023/02/11 12:50:44;;;;;;;;;;;-2.80;74.70;;;;;;5002230;28;88777;-37
2023/02/11 12:53:18;;;;;;;;;;;-2.80;74.70;;;;;;5002478;28;87375;-37
2023/02/11 12:55:45;;;;;;;;;;;-2.80;74.50;;;;;;5004837;28;86983;-37
2023/02/11 12:58:15;;;;;;;;;;;-2.70;74.30;;;;;;5001711;28;88059;-37
2023/02/11 13:00:41;;;;;;;;;;;-2.70;74.20;;;;;;5001087;28;88086;-37
2023/02/11 13:03:09;;;;;;;;;;;-2.70;73.80;;;;;;5002143;28;88785;-37
2023/02/11 13:05:41;;;;;;;;;;;-2.70;73.80;;;;;;5001254;28;88983;-38
2023/02/11 13:08:21;;;;;;;;;;;-2.70;74.10;;;;;;5001857;28;86928;-37
2023/02/11 13:10:49;;;;;;;;;;;-2.60;74.00;;;;;;5001939;28;88877;-37
2023/02/11 13:13:23;;;;;;;;;;;-2.60;73.80;;;;;;5001503;28;89648;-37
2023/02/11 13:16:06;;;;;;;;;;;-2.60;74.00;;;;;;5004788;28;87168;-37
2023/02/11 13:18:54;;;;;;;;;;;-2.60;74.20;;;;;;5002434;28;88734;-37
2023/02/11 13:21:28;;;;;;;;;;;-2.60;73.70;;;;;;5005054;28;87115;-37
2023/02/11 13:23:55;;;;;;;;;;;-2.60;73.70;;;;;;5005080;28;88687;-37
2023/02/11 13:26:47;;;;;;;;;;;-2.50;73.60;;;;;;5004003;28;90490;-37
2023/02/11 13:29:16;;;;;;;;;;;-2.50;73.70;;;;;;5002404;28;87140;-37
2023/02/11 13:31:41;;;;;;;;;;;-2.50;73.60;;;;;;5005022;28;88564;-37
2023/02/11 13:34:22;;;;;;;;;;;-2.50;73.60;;;;;;5004480;28;89382;-37
2023/02/11 13:36:53;;;;;;;;;;;-2.50;73.90;;;;;;5004707;28;87034;-37
2023/02/11 13:39:20;;;;;;;;;;;-2.50;73.80;;;;;;5007507;28;88618;-37
2023/02/11 13:41:48;;;;;;;;;;;-2.40;74.30;;;;;;5005144;28;87782;-37
2023/02/11 13:44:18;;;;;;;;;;;-2.40;73.80;;;;;;5005312;28;88675;-37
2023/02/11 13:46:58;;;;;;;;;;;-2.40;74.30;;;;;;5004219;28;89529;-37
2023/02/11 13:49:30;;;;;;;;;;;-2.40;74.40;;;;;;5004778;28;87166;-37
2023/02/11 13:51:56;;;;;;;;;;;-2.40;73.70;;;;;;5004105;28;89035;-37
2023/02/11 13:54:24;;;;;;;;;;;-2.30;74.00;;;;;;5004461;28;88153;-37
2023/02/11 13:57:28;;;;;;;;;;;-2.30;74.60;;;;;;5004605;28;87298;-37
2023/02/11 14:00:13;;;;;;;;;;;-2.30;75.00;;;;;;4962331;28;89004;-37
2023/02/11 14:11:11;;;;;;;;;;;-2.20;74.90;;;;;;5003781;28;86226;-37
2023/02/11 14:13:56;;;;;;;;;;;-2.20;75.40;;;;;;5004372;28;87541;-37
2023/02/11 14:16:22;;;;;;;;;;;-2.20;75.30;;;;;;4982256;28;89228;-37
2023/02/11 14:18:48;;;;;;;;;;;-2.20;75.20;;;;;;5003694;28;88372;-37
2023/02/11 14:21:22;;;;;;;;;;;-2.20;75.20;;;;;;5004166;28;89839;-37
2023/02/11 14:23:49;;;;;;;;;;;-2.10;75.10;;;;;;5003920;28;89459;-37
2023/02/11 14:26:20;;;;;;;;;;;-2.10;75.10;;;;;;5007105;28;86832;-37
2023/02/11 14:29:04;;;;;;;;;;;-2.10;75.40;;;;;;5003800;28;89452;-37
2023/02/11 14:31:37;;;;;;;;;;;-2.10;75.40;;;;;;5003093;28;87088;-37
2023/02/11 14:34:31;;;;;;;;;;;-2.10;75.60;;;;;;5004193;28;88698;-35
2023/02/11 14:37:00;;;;;;;;;;;-2.00;75.70;;;;;;4966394;28;87237;-37
2023/02/11 14:39:28;;;;;;;;;;;-2.00;75.50;;;;;;5003989;28;87088;-37